sensor_id;sensor_type;location;lat;lon;timestamp;pressure;altitude;pressure_sealevel;temperature;humidity
38912;BME280;28444;48.056;14.408;2023-02-28T00:00:53;98312.06;;;-0.82;75.95
38912;BME280;28444;48.056;14.408;2023-02-28T00:03:19;98307.31;;;-0.73;75.56
38912;BME280;28444;48.056;14.408;2023-02-28T00:05:46;98313.25;;;-0.83;76.56
38912;BME280;28444;48.056;14.408;2023-02-28T00:08:13;98307.25;;;-0.93;75.97
38912;BME280;28444;48.056;14.408;2023-02-28T00:10:40;98311.88;;;-0.93;76.58
38912;BME280;28444;48.056;14.408;2023-02-28T00:13:07;98315.38;;;-0.87;76.39
38912;BME280;28444;48.056;14.408;2023-02-28T00:15:34;98314.38;;;-0.90;76.90
38912;BME280;28444;48.056;14.408;2023-02-28T00:18:01;98309.00;;;-0.90;76.64
38912;BME280;28444;48.056;14.408;2023-02-28T00:20:28;98314.47;;;-0.99;76.56
38912;BME280;28444;48.056;14.408;2023-02-28T00:22:56;98310.03;;;-1.02;76.95
38912;BME280;28444;48.056;14.408;2023-02-28T00:25:24;98297.38;;;-1.02;77.09
38912;BME280;28444;48.056;14.408;2023-02-28T00:27:52;98296.72;;;-1.11;77.36
38912;BME280;28444;48.056;14.408;2023-02-28T00:30:22;98295.06;;;-1.09;77.58
38912;BME280;28444;48.056;14.408;2023-02-28T00:32:49;98304.03;;;-1.12;78.06
38912;BME280;28444;48.056;14.408;2023-02-28T00:35:17;98296.00;;;-1.12;77.65
38912;BME280;28444;48.056;14.408;2023-02-28T00:37:44;98295.06;;;-1.24;77.86
38912;BME280;28444;48.056;14.408;2023-02-28T00:40:11;98286.63;;;-1.16;78.13
38912;BME280;28444;48.056;14.408;2023-02-28T00:42:39;98285.63;;;-1.19;77.34
38912;BME280;28444;48.056;14.408;2023-02-28T00:45:06;98293.75;;;-1.13;77.95
38912;BME280;28444;48.056;14.408;2023-02-28T00:47:34;98294.31;;;-1.24;78.44
38912;BME280;28444;48.056;14.408;2023-02-28T00:50:01;98297.66;;;-1.29;78.48
38912;BME280;28444;48.056;14.408;2023-02-28T00:52:28;98286.09;;;-1.35;78.97
38912;BME280;28444;48.056;14.408;2023-02-28T00:54:55;98284.78;;;-1.25;78.67
38912;BME280;28444;48.056;14.408;2023-02-28T00:57:22;98280.63;;;-1.26;78.73
38912;BME280;28444;48.056;14.408;2023-02-28T00:59:49;98278.50;;;-1.37;78.82
38912;BME280;28444;48.056;14.408;2023-02-28T01:02:15;98273.59;;;-1.38;79.18
38912;BME280;28444;48.056;14.408;2023-02-28T01:04:42;98275.91;;;-1.31;79.35
38912;BME280;28444;48.056;14.408;2023-02-28T01:07:09;98272.84;;;-1.24;79.78
38912;BME280;28444;48.056;14.408;2023-02-28T01:09:36;98272.22;;;-1.34;79.38
38912;BME280;28444;48.056;14.408;2023-02-28T01:12:03;98260.94;;;-1.38;79.81
38912;BME280;28444;48.056;14.408;2023-02-28T01:14:30;98273.41;;;-1.35;79.75
38912;BME280;28444;48.056;14.408;2023-02-28T01:16:56;98264.25;;;-1.28;79.45
38912;BME280;28444;48.056;14.408;2023-02-28T01:19:23;98265.34;;;-1.35;79.18
38912;BME280;28444;48.056;14.408;2023-02-28T01:21:50;98262.28;;;-1.28;79.69
38912;BME280;28444;48.056;14.408;2023-02-28T01:24:16;98266.00;;;-1.25;79.71
38912;BME280;28444;48.056;14.408;2023-02-28T01:26:43;98264.16;;;-1.19;79.36
38912;BME280;28444;48.056;14.408;2023-02-28T01:29:10;98269.72;;;-1.23;79.42
38912;BME280;28444;48.056;14.408;2023-02-28T01:31:36;98267.22;;;-1.26;79.61
38912;BME280;28444;48.056;14.408;2023-02-28T01:34:03;98257.13;;;-1.31;79.75
38912;BME280;28444;48.056;14.408;2023-02-28T01:36:30;98262.97;;;-1.48;80.22
38912;BME280;28444;48.056;14.408;2023-02-28T01:38:57;98263.41;;;-1.49;81.38
38912;BME280;28444;48.056;14.408;2023-02-28T01:41:26;98254.25;;;-1.42;80.73
38912;BME280;28444;48.056;14.408;2023-02-28T01:44:01;98248.88;;;-1.42;80.33
38912;BME280;28444;48.056;14.408;2023-02-28T01:46:34;98249.75;;;-1.51;80.44
38912;BME280;28444;48.056;14.408;2023-02-28T01:49:15;98245.84;;;-1.50;80.94
38912;BME280;28444;48.056;14.408;2023-02-28T01:51:52;98242.91;;;-1.52;80.39
38912;BME280;28444;48.056;14.408;2023-02-28T01:54:24;98242.72;;;-1.49;80.68
38912;BME280;28444;48.056;14.408;2023-02-28T01:57:04;98245.84;;;-1.35;80.08
38912;BME280;28444;48.056;14.408;2023-02-28T01:59:42;98243.69;;;-1.31;79.51
38912;BME280;28444;48.056;14.408;2023-02-28T02:02:14;98232.06;;;-1.43;79.48
38912;BME280;28444;48.056;14.408;2023-02-28T02:04:56;98234.84;;;-1.52;80.18
38912;BME280;28444;48.056;14.408;2023-02-28T02:07:25;98238.28;;;-1.52;80.35
38912;BME280;28444;48.056;14.408;2023-02-28T02:13:08;98231.59;;;-1.56;80.56
38912;BME280;28444;48.056;14.408;2023-02-28T02:18:54;98224.56;;;-1.68;80.82
38912;BME280;28444;48.056;14.408;2023-02-28T02:31:39;98212.56;;;-1.73;81.79
38912;BME280;28444;48.056;14.408;2023-02-28T02:34:38;98211.53;;;-1.76;81.61
38912;BME280;28444;48.056;14.408;2023-02-28T02:37:36;98211.47;;;-1.81;82.06
38912;BME280;28444;48.056;14.408;2023-02-28T02:40:20;98208.97;;;-1.85;82.34
38912;BME280;28444;48.056;14.408;2023-02-28T02:43:04;98202.94;;;-1.80;82.36
38912;BME280;28444;48.056;14.408;2023-02-28T02:45:55;98205.69;;;-1.89;82.30
38912;BME280;28444;48.056;14.408;2023-02-28T02:48:26;98204.69;;;-1.77;82.15
38912;BME280;28444;48.056;14.408;2023-02-28T02:50:56;98202.56;;;-1.73;81.94
38912;BME280;28444;48.056;14.408;2023-02-28T02:53:42;98206.47;;;-1.74;81.41
38912;BME280;28444;48.056;14.408;2023-02-28T02:56:28;98207.00;;;-1.84;82.54
38912;BME280;28444;48.056;14.408;2023-02-28T02:59:00;98206.34;;;-1.79;81.81
38912;BME280;28444;48.056;14.408;2023-02-28T03:01:29;98206.66;;;-1.77;81.99
38912;BME280;28444;48.056;14.408;2023-02-28T03:04:03;98205.69;;;-1.89;81.75
38912;BME280;28444;48.056;14.408;2023-02-28T03:06:31;98215.06;;;-1.84;82.75
38912;BME280;28444;48.056;14.408;2023-02-28T03:08:57;98209.41;;;-1.86;82.06
38912;BME280;28444;48.056;14.408;2023-02-28T03:11:24;98205.06;;;-1.84;82.20
38912;BME280;28444;48.056;14.408;2023-02-28T03:20:29;98204.03;;;-1.86;82.68
38912;BME280;28444;48.056;14.408;2023-02-28T03:23:29;98207.19;;;-1.88;81.87
38912;BME280;28444;48.056;14.408;2023-02-28T03:26:07;98213.28;;;-1.87;82.10
38912;BME280;28444;48.056;14.408;2023-02-28T03:28:56;98208.84;;;-1.90;82.55
38912;BME280;28444;48.056;14.408;2023-02-28T03:31:34;98208.13;;;-1.91;82.68
38912;BME280;28444;48.056;14.408;2023-02-28T03:34:24;98199.03;;;-1.94;83.02
38912;BME280;28444;48.056;14.408;2023-02-28T03:36:56;98205.25;;;-2.02;82.40
38912;BME280;28444;48.056;14.408;2023-02-28T03:39:28;98204.59;;;-1.97;83.36
38912;BME280;28444;48.056;14.408;2023-02-28T03:42:00;98208.31;;;-1.95;82.91
38912;BME280;28444;48.056;14.408;2023-02-28T03:44:32;98207.81;;;-1.93;82.23
38912;BME280;28444;48.056;14.408;2023-02-28T03:50:25;98203.19;;;-1.92;83.63
38912;BME280;28444;48.056;14.408;2023-02-28T03:53:00;98195.38;;;-1.81;82.97
38912;BME280;28444;48.056;14.408;2023-02-28T03:55:37;98214.41;;;-1.94;82.25
38912;BME280;28444;48.056;14.408;2023-02-28T03:58:13;98203.41;;;-1.66;81.76
38912;BME280;28444;48.056;14.408;2023-02-28T04:00:49;98202.09;;;-1.71;81.83
38912;BME280;28444;48.056;14.408;2023-02-28T04:03:19;98204.22;;;-1.90;81.83
38912;BME280;28444;48.056;14.408;2023-02-28T04:05:54;98208.00;;;-1.97;82.02
38912;BME280;28444;48.056;14.408;2023-02-28T04:08:22;98202.75;;;-1.91;81.57
38912;BME280;28444;48.056;14.408;2023-02-28T04:10:57;98208.13;;;-1.91;81.95
38912;BME280;28444;48.056;14.408;2023-02-28T04:13:24;98205.25;;;-2.02;81.67
38912;BME280;28444;48.056;14.408;2023-02-28T04:15:51;98201.34;;;-2.01;81.97
38912;BME280;28444;48.056;14.408;2023-02-28T04:18:17;98196.66;;;-2.06;81.92
38912;BME280;28444;48.056;14.408;2023-02-28T04:20:44;98203.13;;;-1.98;82.45
38912;BME280;28444;48.056;14.408;2023-02-28T04:23:11;98208.31;;;-1.95;82.19
38912;BME280;28444;48.056;14.408;2023-02-28T04:25:37;98194.97;;;-2.04;81.85
38912;BME280;28444;48.056;14.408;2023-02-28T04:28:06;98201.09;;;-2.03;82.25
38912;BME280;28444;48.056;14.408;2023-02-28T04:30:33;98213.09;;;-1.99;81.52
38912;BME280;28444;48.056;14.408;2023-02-28T04:33:00;98206.63;;;-2.07;81.60
38912;BME280;28444;48.056;14.408;2023-02-28T04:35:27;98207.06;;;-2.08;81.90
38912;BME280;28444;48.056;14.408;2023-02-28T04:37:54;98199.88;;;-2.17;82.07
38912;BME280;28444;48.056;14.408;2023-02-28T04:40:20;98211.59;;;-2.14;82.31
38912;BME280;28444;48.056;14.408;2023-02-28T04:42:47;98196.63;;;-2.21;81.92
38912;BME280;28444;48.056;14.408;2023-02-28T04:45:13;98204.66;;;-2.21;82.44
38912;BME280;28444;48.056;14.408;2023-02-28T04:47:40;98202.25;;;-2.19;81.95
38912;BME280;28444;48.056;14.408;2023-02-28T04:50:08;98203.66;;;-2.24;81.86
38912;BME280;28444;48.056;14.408;2023-02-28T04:52:35;98200.97;;;-2.24;81.64
38912;BME280;28444;48.056;14.408;2023-02-28T04:55:01;98202.72;;;-2.21;82.44
38912;BME280;28444;48.056;14.408;2023-02-28T04:57:28;98195.69;;;-2.18;81.89
38912;BME280;28444;48.056;14.408;2023-02-28T04:59:56;98209.09;;;-2.18;81.87
38912;BME280;28444;48.056;14.408;2023-02-28T05:02:23;98201.06;;;-2.18;81.34
38912;BME280;28444;48.056;14.408;2023-02-28T05:04:50;98201.53;;;-2.20;81.34
38912;BME280;28444;48.056;14.408;2023-02-28T05:07:17;98201.16;;;-2.27;81.84
38912;BME280;28444;48.056;14.408;2023-02-28T05:09:43;98201.78;;;-2.32;81.89
38912;BME280;28444;48.056;14.408;2023-02-28T05:12:10;98197.72;;;-2.28;82.43
38912;BME280;28444;48.056;14.408;2023-02-28T05:14:37;98198.34;;;-2.33;82.32
38912;BME280;28444;48.056;14.408;2023-02-28T05:17:03;98206.38;;;-2.33;82.34
38912;BME280;28444;48.056;14.408;2023-02-28T05:19:30;98196.88;;;-2.34;81.78
38912;BME280;28444;48.056;14.408;2023-02-28T05:21:57;98211.84;;;-2.42;82.13
38912;BME280;28444;48.056;14.408;2023-02-28T05:24:23;98206.19;;;-2.44;81.59
38912;BME280;28444;48.056;14.408;2023-02-28T05:26:52;98204.53;;;-2.42;82.29
38912;BME280;28444;48.056;14.408;2023-02-28T05:29:19;98202.59;;;-2.41;81.93
38912;BME280;28444;48.056;14.408;2023-02-28T05:31:46;98206.47;;;-2.42;81.56
38912;BME280;28444;48.056;14.408;2023-02-28T05:34:13;98201.38;;;-2.40;81.27
38912;BME280;28444;48.056;14.408;2023-02-28T05:36:42;98192.16;;;-2.39;81.20
38912;BME280;28444;48.056;14.408;2023-02-28T05:39:09;98200.66;;;-2.40;81.69
38912;BME280;28444;48.056;14.408;2023-02-28T05:41:43;98202.66;;;-2.50;81.54
38912;BME280;28444;48.056;14.408;2023-02-28T05:44:10;98212.78;;;-2.54;81.54
38912;BME280;28444;48.056;14.408;2023-02-28T05:46:37;98212.88;;;-2.25;82.85
38912;BME280;28444;48.056;14.408;2023-02-28T05:49:04;98203.13;;;-1.98;80.14
38912;BME280;28444;48.056;14.408;2023-02-28T05:51:31;98213.38;;;-1.97;79.33
38912;BME280;28444;48.056;14.408;2023-02-28T05:53:59;98204.19;;;-2.20;80.27
38912;BME280;28444;48.056;14.408;2023-02-28T05:56:27;98208.44;;;-2.28;81.05
38912;BME280;28444;48.056;14.408;2023-02-28T05:58:54;98211.56;;;-2.29;80.73
38912;BME280;28444;48.056;14.408;2023-02-28T06:01:35;98207.16;;;-2.32;81.19
38912;BME280;28444;48.056;14.408;2023-02-28T06:04:04;98222.94;;;-2.34;80.87
38912;BME280;28444;48.056;14.408;2023-02-28T06:06:31;98220.59;;;-2.42;81.04
38912;BME280;28444;48.056;14.408;2023-02-28T06:09:05;98221.59;;;-2.54;82.04
38912;BME280;28444;48.056;14.408;2023-02-28T06:11:32;98212.28;;;-2.44;82.60
38912;BME280;28444;48.056;14.408;2023-02-28T06:14:00;98226.78;;;-2.50;82.47
38912;BME280;28444;48.056;14.408;2023-02-28T06:16:28;98224.19;;;-2.45;81.56
38912;BME280;28444;48.056;14.408;2023-02-28T06:18:57;98231.84;;;-2.52;82.53
38912;BME280;28444;48.056;14.408;2023-02-28T06:21:24;98229.00;;;-2.49;82.40
38912;BME280;28444;48.056;14.408;2023-02-28T06:23:51;98228.06;;;-2.46;81.98
38912;BME280;28444;48.056;14.408;2023-02-28T06:26:18;98233.44;;;-2.46;81.92
38912;BME280;28444;48.056;14.408;2023-02-28T06:28:46;98236.03;;;-2.36;81.48
38912;BME280;28444;48.056;14.408;2023-02-28T06:31:14;98244.84;;;-2.36;81.53
38912;BME280;28444;48.056;14.408;2023-02-28T06:33:42;98241.31;;;-2.42;82.05
38912;BME280;28444;48.056;14.408;2023-02-28T06:36:11;98247.56;;;-2.45;81.73
38912;BME280;28444;48.056;14.408;2023-02-28T06:38:39;98253.16;;;-2.34;81.60
38912;BME280;28444;48.056;14.408;2023-02-28T06:41:08;98246.78;;;-2.22;81.66
38912;BME280;28444;48.056;14.408;2023-02-28T06:43:38;98250.31;;;-2.15;81.45
38912;BME280;28444;48.056;14.408;2023-02-28T06:46:07;98260.69;;;-2.08;81.31
38912;BME280;28444;48.056;14.408;2023-02-28T06:48:35;98255.31;;;-2.08;80.73
38912;BME280;28444;48.056;14.408;2023-02-28T06:51:13;98265.78;;;-2.10;80.83
38912;BME280;28444;48.056;14.408;2023-02-28T06:53:41;98266.34;;;-2.06;80.56
38912;BME280;28444;48.056;14.408;2023-02-28T06:56:10;98258.31;;;-2.06;81.28
38912;BME280;28444;48.056;14.408;2023-02-28T06:58:37;98269.72;;;-2.21;80.90
38912;BME280;28444;48.056;14.408;2023-02-28T07:01:06;98267.34;;;-2.04;81.10
38912;BME280;28444;48.056;14.408;2023-02-28T07:03:34;98263.41;;;-1.94;80.89
38912;BME280;28444;48.056;14.408;2023-02-28T07:06:01;98258.31;;;-1.91;79.90
38912;BME280;28444;48.056;14.408;2023-02-28T07:08:29;98262.56;;;-2.00;80.11
38912;BME280;28444;48.056;14.408;2023-02-28T07:10:56;98262.81;;;-2.12;81.40
38912;BME280;28444;48.056;14.408;2023-02-28T07:13:24;98262.75;;;-2.03;81.42
38912;BME280;28444;48.056;14.408;2023-02-28T07:16:02;98261.38;;;-1.99;80.97
38912;BME280;28444;48.056;14.408;2023-02-28T07:18:29;98265.81;;;-1.96;81.16
38912;BME280;28444;48.056;14.408;2023-02-28T07:20:56;98251.09;;;-1.85;80.66
38912;BME280;28444;48.056;14.408;2023-02-28T07:23:24;98252.03;;;-1.88;80.53
38912;BME280;28444;48.056;14.408;2023-02-28T07:25:51;98261.56;;;-1.87;80.83
38912;BME280;28444;48.056;14.408;2023-02-28T07:28:18;98261.47;;;-1.78;80.63
38912;BME280;28444;48.056;14.408;2023-02-28T07:30:45;98261.56;;;-1.73;79.25
38912;BME280;28444;48.056;14.408;2023-02-28T07:33:11;98258.34;;;-1.77;79.29
38912;BME280;28444;48.056;14.408;2023-02-28T07:35:38;98260.66;;;-1.70;79.85
38912;BME280;28444;48.056;14.408;2023-02-28T07:38:05;98261.22;;;-1.65;79.05
38912;BME280;28444;48.056;14.408;2023-02-28T07:40:34;98261.56;;;-1.73;80.13
38912;BME280;28444;48.056;14.408;2023-02-28T07:43:01;98268.41;;;-1.72;79.88
38912;BME280;28444;48.056;14.408;2023-02-28T07:45:29;98269.72;;;-1.67;79.64
38912;BME280;28444;48.056;14.408;2023-02-28T07:47:56;98271.47;;;-1.64;79.28
38912;BME280;28444;48.056;14.408;2023-02-28T07:50:22;98266.47;;;-1.71;79.71
38912;BME280;28444;48.056;14.408;2023-02-28T07:52:52;98268.34;;;-1.62;79.65
38912;BME280;28444;48.056;14.408;2023-02-28T07:55:18;98270.53;;;-1.61;79.14
38912;BME280;28444;48.056;14.408;2023-02-28T07:57:45;98269.06;;;-1.62;79.36
38912;BME280;28444;48.056;14.408;2023-02-28T08:00:12;98270.72;;;-1.64;79.74
38912;BME280;28444;48.056;14.408;2023-02-28T08:02:40;98268.97;;;-1.53;80.12
38912;BME280;28444;48.056;14.408;2023-02-28T08:05:07;98265.28;;;-1.40;79.98
38912;BME280;28444;48.056;14.408;2023-02-28T08:07:33;98267.31;;;-1.35;78.93
38912;BME280;28444;48.056;14.408;2023-02-28T08:10:00;98284.13;;;-1.20;78.96
38912;BME280;28444;48.056;14.408;2023-02-28T08:12:27;98276.47;;;-1.12;77.77
38912;BME280;28444;48.056;14.408;2023-02-28T08:14:54;98276.91;;;-1.14;78.20
38912;BME280;28444;48.056;14.408;2023-02-28T08:17:21;98285.50;;;-1.10;78.45
38912;BME280;28444;48.056;14.408;2023-02-28T08:19:47;98274.38;;;-1.03;77.07
38912;BME280;28444;48.056;14.408;2023-02-28T08:22:14;98279.22;;;-1.07;77.36
38912;BME280;28444;48.056;14.408;2023-02-28T08:24:41;98275.78;;;-1.07;78.23
38912;BME280;28444;48.056;14.408;2023-02-28T08:27:09;98268.81;;;-0.99;78.15
38912;BME280;28444;48.056;14.408;2023-02-28T08:29:37;98273.97;;;-0.81;77.68
38912;BME280;28444;48.056;14.408;2023-02-28T08:32:06;98277.91;;;-0.97;77.52
38912;BME280;28444;48.056;14.408;2023-02-28T08:34:45;98273.81;;;-0.92;77.35
38912;BME280;28444;48.056;14.408;2023-02-28T08:37:13;98283.97;;;-0.81;77.76
38912;BME280;28444;48.056;14.408;2023-02-28T08:39:40;98281.97;;;-0.86;77.99
38912;BME280;28444;48.056;14.408;2023-02-28T08:42:07;98293.69;;;-0.69;77.50
38912;BME280;28444;48.056;14.408;2023-02-28T08:44:33;98288.66;;;-0.61;77.10
38912;BME280;28444;48.056;14.408;2023-02-28T08:47:00;98287.09;;;-0.47;77.42
38912;BME280;28444;48.056;14.408;2023-02-28T08:49:27;98278.84;;;-0.44;77.09
38912;BME280;28444;48.056;14.408;2023-02-28T08:51:54;98290.75;;;-0.30;76.53
38912;BME280;28444;48.056;14.408;2023-02-28T08:54:21;98296.84;;;-0.30;76.21
38912;BME280;28444;48.056;14.408;2023-02-28T08:56:49;98303.56;;;-0.19;75.56
38912;BME280;28444;48.056;14.408;2023-02-28T08:59:16;98306.34;;;-0.14;76.29
38912;BME280;28444;48.056;14.408;2023-02-28T09:01:42;98296.13;;;-0.10;75.44
38912;BME280;28444;48.056;14.408;2023-02-28T09:04:10;98293.63;;;-0.13;75.39
38912;BME280;28444;48.056;14.408;2023-02-28T09:06:41;98302.31;;;-0.04;75.76
38912;BME280;28444;48.056;14.408;2023-02-28T09:09:07;98302.38;;;0.02;75.79
38912;BME280;28444;48.056;14.408;2023-02-28T09:11:36;98314.19;;;0.10;75.55
38912;BME280;28444;48.056;14.408;2023-02-28T09:14:03;98301.75;;;0.13;75.68
38912;BME280;28444;48.056;14.408;2023-02-28T09:16:31;98312.31;;;0.16;74.63
38912;BME280;28444;48.056;14.408;2023-02-28T09:18:59;98308.19;;;0.21;74.37
38912;BME280;28444;48.056;14.408;2023-02-28T09:21:27;98301.75;;;0.13;74.73
38912;BME280;28444;48.056;14.408;2023-02-28T09:23:54;98313.72;;;0.12;74.70
38912;BME280;28444;48.056;14.408;2023-02-28T09:26:26;98320.38;;;0.16;75.05
38912;BME280;28444;48.056;14.408;2023-02-28T09:29:04;98315.78;;;0.22;74.53
38912;BME280;28444;48.056;14.408;2023-02-28T09:31:31;98315.31;;;0.24;74.99
38912;BME280;28444;48.056;14.408;2023-02-28T09:33:58;98310.78;;;0.36;74.77
38912;BME280;28444;48.056;14.408;2023-02-28T09:36:26;98308.59;;;0.40;74.80
38912;BME280;28444;48.056;14.408;2023-02-28T09:39:10;98315.22;;;0.39;75.04
38912;BME280;28444;48.056;14.408;2023-02-28T09:41:41;98314.28;;;0.42;74.90
38912;BME280;28444;48.056;14.408;2023-02-28T09:44:26;98320.75;;;0.56;73.39
38912;BME280;28444;48.056;14.408;2023-02-28T09:47:04;98319.84;;;0.64;73.98
38912;BME280;28444;48.056;14.408;2023-02-28T09:49:36;98316.94;;;0.68;72.74
38912;BME280;28444;48.056;14.408;2023-02-28T09:52:10;98322.03;;;0.60;73.79
38912;BME280;28444;48.056;14.408;2023-02-28T09:54:38;98326.75;;;0.65;73.90
38912;BME280;28444;48.056;14.408;2023-02-28T09:57:33;98328.25;;;0.72;74.54
38912;BME280;28444;48.056;14.408;2023-02-28T10:00:18;98329.84;;;0.90;74.37
38912;BME280;28444;48.056;14.408;2023-02-28T10:03:20;98331.59;;;0.93;73.06
38912;BME280;28444;48.056;14.408;2023-02-28T10:05:55;98339.78;;;1.04;72.85
38912;BME280;28444;48.056;14.408;2023-02-28T10:08:27;98336.91;;;1.13;72.71
38912;BME280;28444;48.056;14.408;2023-02-28T10:11:07;98335.16;;;1.10;72.18
38912;BME280;28444;48.056;14.408;2023-02-28T10:13:56;98340.38;;;1.19;73.03
38912;BME280;28444;48.056;14.408;2023-02-28T10:16:55;98341.59;;;1.18;72.16
38912;BME280;28444;48.056;14.408;2023-02-28T10:19:47;98339.63;;;1.19;72.30
38912;BME280;28444;48.056;14.408;2023-02-28T10:22:34;98341.66;;;1.24;72.62
38912;BME280;28444;48.056;14.408;2023-02-28T10:25:16;98342.59;;;1.21;72.71
38912;BME280;28444;48.056;14.408;2023-02-28T10:27:43;98346.09;;;1.33;72.71
38912;BME280;28444;48.056;14.408;2023-02-28T10:30:11;98349.59;;;1.44;72.46
38912;BME280;28444;48.056;14.408;2023-02-28T10:32:40;98345.03;;;1.56;72.18
38912;BME280;28444;48.056;14.408;2023-02-28T10:35:29;98340.66;;;1.64;71.35
38912;BME280;28444;48.056;14.408;2023-02-28T10:37:58;98338.16;;;1.55;71.80
38912;BME280;28444;48.056;14.408;2023-02-28T10:40:33;98338.66;;;1.59;71.62
38912;BME280;28444;48.056;14.408;2023-02-28T10:43:06;98340.72;;;1.76;72.06
38912;BME280;28444;48.056;14.408;2023-02-28T10:45:56;98334.34;;;1.79;71.90
38912;BME280;28444;48.056;14.408;2023-02-28T10:48:32;98333.34;;;1.76;71.34
38912;BME280;28444;48.056;14.408;2023-02-28T10:51:01;98326.50;;;1.81;71.92
38912;BME280;28444;48.056;14.408;2023-02-28T10:53:37;98335.41;;;1.92;71.69
38912;BME280;28444;48.056;14.408;2023-02-28T10:56:25;98324.84;;;1.95;71.08
38912;BME280;28444;48.056;14.408;2023-02-28T10:59:02;98326.31;;;1.96;70.95
38912;BME280;28444;48.056;14.408;2023-02-28T11:01:50;98327.63;;;2.11;71.22
38912;BME280;28444;48.056;14.408;2023-02-28T11:04:37;98313.16;;;2.14;71.21
38912;BME280;28444;48.056;14.408;2023-02-28T11:07:27;98311.19;;;2.21;70.83
38912;BME280;28444;48.056;14.408;2023-02-28T11:10:19;98314.88;;;2.23;71.15
38912;BME280;28444;48.056;14.408;2023-02-28T11:12:47;98317.34;;;2.27;70.55
38912;BME280;28444;48.056;14.408;2023-02-28T11:15:30;98306.06;;;2.23;69.36
38912;BME280;28444;48.056;14.408;2023-02-28T11:18:23;98305.81;;;2.32;70.39
38912;BME280;28444;48.056;14.408;2023-02-28T11:20:50;98306.84;;;2.46;69.55
38912;BME280;28444;48.056;14.408;2023-02-28T11:23:18;98309.31;;;2.55;69.23
38912;BME280;28444;48.056;14.408;2023-02-28T11:25:52;98310.53;;;2.65;69.11
38912;BME280;28444;48.056;14.408;2023-02-28T11:28:30;98303.69;;;2.70;69.50
38912;BME280;28444;48.056;14.408;2023-02-28T11:31:17;98313.50;;;2.73;69.21
38912;BME280;28444;48.056;14.408;2023-02-28T11:33:55;98307.34;;;2.78;68.87
38912;BME280;28444;48.056;14.408;2023-02-28T11:36:28;98308.34;;;2.92;67.54
38912;BME280;28444;48.056;14.408;2023-02-28T11:38:56;98307.38;;;2.95;68.11
38912;BME280;28444;48.056;14.408;2023-02-28T11:48:26;98289.91;;;3.07;68.36
38912;BME280;28444;48.056;14.408;2023-02-28T11:51:11;98296.75;;;3.19;67.93
38912;BME280;28444;48.056;14.408;2023-02-28T11:53:50;98296.28;;;3.21;67.88
38912;BME280;28444;48.056;14.408;2023-02-28T11:56:47;98292.34;;;3.27;68.89
38912;BME280;28444;48.056;14.408;2023-02-28T11:59:53;98285.69;;;3.23;68.69
38912;BME280;28444;48.056;14.408;2023-02-28T12:11:35;98281.22;;;3.53;67.39
38912;BME280;28444;48.056;14.408;2023-02-28T12:17:59;98279.47;;;3.61;67.34
38912;BME280;28444;48.056;14.408;2023-02-28T12:20:48;98281.91;;;3.71;67.89
38912;BME280;28444;48.056;14.408;2023-02-28T12:23:37;98271.50;;;3.80;67.61
38912;BME280;28444;48.056;14.408;2023-02-28T12:28:51;98279.63;;;3.86;68.20
38912;BME280;28444;48.056;14.408;2023-02-28T12:31:31;98276.59;;;3.95;66.92
38912;BME280;28444;48.056;14.408;2023-02-28T12:34:06;98270.78;;;3.80;66.24
38912;BME280;28444;48.056;14.408;2023-02-28T12:36:36;98271.25;;;3.84;65.94
38912;BME280;28444;48.056;14.408;2023-02-28T12:39:18;98269.44;;;4.03;66.77
38912;BME280;28444;48.056;14.408;2023-02-28T12:42:05;98276.28;;;4.16;66.25
38912;BME280;28444;48.056;14.408;2023-02-28T12:44:39;98266.69;;;4.09;65.81
38912;BME280;28444;48.056;14.408;2023-02-28T12:47:13;98266.69;;;4.15;67.40
38912;BME280;28444;48.056;14.408;2023-02-28T12:49:54;98265.91;;;4.20;68.02
38912;BME280;28444;48.056;14.408;2023-02-28T12:53:01;98267.69;;;4.06;67.61
38912;BME280;28444;48.056;14.408;2023-02-28T12:56:24;98267.75;;;4.00;67.33
38912;BME280;28444;48.056;14.408;2023-02-28T12:58:39;98263.50;;;4.10;67.67
38912;BME280;28444;48.056;14.408;2023-02-28T13:01:31;98265.91;;;4.20;67.84
38912;BME280;28444;48.056;14.408;2023-02-28T13:04:55;98264.19;;;4.22;67.44
38912;BME280;28444;48.056;14.408;2023-02-28T13:08:01;98261.94;;;4.21;67.13
38912;BME280;28444;48.056;14.408;2023-02-28T13:10:23;98257.97;;;4.27;66.98
38912;BME280;28444;48.056;14.408;2023-02-28T13:12:51;98256.28;;;4.24;66.93
38912;BME280;28444;48.056;14.408;2023-02-28T13:15:22;98265.84;;;4.31;67.25
38912;BME280;28444;48.056;14.408;2023-02-28T13:17:54;98253.81;;;4.26;67.03
38912;BME280;28444;48.056;14.408;2023-02-28T13:20:24;98254.78;;;4.29;66.86
38912;BME280;28444;48.056;14.408;2023-02-28T13:22:53;98256.00;;;4.28;67.32
38912;BME280;28444;48.056;14.408;2023-02-28T13:25:53;98255.13;;;4.14;68.02
38912;BME280;28444;48.056;14.408;2023-02-28T13:35:12;98255.28;;;3.80;68.89
38912;BME280;28444;48.056;14.408;2023-02-28T13:37:44;98245.69;;;3.79;68.95
38912;BME280;28444;48.056;14.408;2023-02-28T13:40:32;98242.72;;;3.83;69.34
38912;BME280;28444;48.056;14.408;2023-02-28T13:43:07;98243.66;;;3.91;68.64
38912;BME280;28444;48.056;14.408;2023-02-28T13:45:35;98251.50;;;4.00;68.66
38912;BME280;28444;48.056;14.408;2023-02-28T13:48:19;98249.47;;;4.06;68.04
38912;BME280;28444;48.056;14.408;2023-02-28T13:50:51;98252.44;;;4.08;67.89
38912;BME280;28444;48.056;14.408;2023-02-28T13:53:59;98246.72;;;4.18;68.45
38912;BME280;28444;48.056;14.408;2023-02-28T13:56:36;98249.59;;;4.31;68.03
38912;BME280;28444;48.056;14.408;2023-02-28T13:59:49;98250.63;;;4.22;67.38
38912;BME280;28444;48.056;14.408;2023-02-28T14:05:25;98257.31;;;4.16;68.33
38912;BME280;28444;48.056;14.408;2023-02-28T14:07:56;98265.63;;;4.23;68.64
38912;BME280;28444;48.056;14.408;2023-02-28T14:10:34;98257.75;;;4.25;67.88
38912;BME280;28444;48.056;14.408;2023-02-28T14:15:59;98250.94;;;4.13;68.26
38912;BME280;28444;48.056;14.408;2023-02-28T14:18:32;98260.03;;;4.10;67.64
38912;BME280;28444;48.056;14.408;2023-02-28T14:21:26;98252.63;;;4.16;68.12
38912;BME280;28444;48.056;14.408;2023-02-28T14:25:23;98249.66;;;4.20;68.54